Time;durP1;ratioP1;P1;durP2;ratioP2;P2;SDS_P1;SDS_P2;PMS_P1;PMS_P2;Temp;Humidity;BMP_temperature;BMP_pressure;BME280_temperature;BME280_humidity;BME280_pressure;Samples;Min_cycle;Max_cycle;Signal;HPM_P1;HPM_P2
2022/08/22 00:02:01;;;;;;;4.97;2.60;;;;;;;;;;2333457;54;21027;-78
2022/08/22 00:04:32;;;;;;;4.75;2.42;;;;;;;;;;2274614;59;21055;-78
2022/08/22 00:07:03;;;;;;;6.68;2.60;;;;;;;;;;2274524;59;21062;-78
2022/08/22 00:09:35;;;;;;;7.95;2.97;;;;;;;;;;2263336;56;72533;-80
2022/08/22 00:12:11;;;;;;;8.13;2.28;;;;;;;;;;2250137;60;21554;-80
2022/08/22 00:14:40;;;;;;;5.43;2.22;;;;;;;;;;2476599;55;21126;-80
2022/08/22 00:17:19;;;;;;;3.90;2.30;;;;;;;;;;2248951;60;21079;-80
2022/08/22 00:19:49;;;;;;;8.70;2.83;;;;;;;;;;2475042;55;21620;-80
2022/08/22 00:22:20;;;;;;;6.20;2.33;;;;;;;;;;2249173;60;21532;-80
2022/08/22 00:24:52;;;;;;;5.18;2.40;;;;;;;;;;2248868;60;21079;-80
2022/08/22 00:27:22;;;;;;;5.00;3.10;;;;;;;;;;2248468;60;21679;-80
2022/08/22 00:29:51;;;;;;;4.72;2.55;;;;;;;;;;2248724;59;21083;-81
2022/08/22 00:32:20;;;;;;;5.30;2.50;;;;;;;;;;2248282;60;21135;-80
2022/08/22 00:34:50;;;;;;;6.87;2.37;;;;;;;;;;2248438;60;21083;-80
2022/08/22 00:37:20;;;;;;;4.90;2.42;;;;;;;;;;2248135;60;21608;-80
2022/08/22 00:39:49;;;;;;;6.50;2.53;;;;;;;;;;2248508;60;21540;-80
2022/08/22 00:42:48;;;;;;;7.40;2.62;;;;;;;;;;2248474;60;21564;-80
2022/08/22 00:45:33;;;;;;;4.28;2.90;;;;;;;;;;2247924;60;21369;-80
2022/08/22 00:48:27;;;;;;;5.90;3.05;;;;;;;;;;2247836;60;22218;-80
2022/08/22 00:51:16;;;;;;;6.72;2.85;;;;;;;;;;2248411;60;21215;-81
2022/08/22 00:53:47;;;;;;;5.87;2.83;;;;;;;;;;2249057;60;21123;-81
2022/08/22 00:56:32;;;;;;;9.40;3.17;;;;;;;;;;2474350;55;21131;-82
2022/08/22 00:59:07;;;;;;;6.53;2.95;;;;;;;;;;2475476;55;21068;-82
2022/08/22 01:01:36;;;;;;;6.97;2.67;;;;;;;;;;2248859;60;21595;-82
2022/08/22 01:04:13;;;;;;;6.10;2.75;;;;;;;;;;2249411;60;22171;-82
2022/08/22 01:06:47;;;;;;;6.78;2.90;;;;;;;;;;2248636;60;21571;-81
2022/08/22 01:09:28;;;;;;;8.52;2.70;;;;;;;;;;2475129;56;21544;-82
2022/08/22 01:12:03;;;;;;;6.53;2.72;;;;;;;;;;2249161;60;21694;-82
2022/08/22 01:14:38;;;;;;;7.18;2.97;;;;;;;;;;2249804;60;21636;-82
2022/08/22 01:17:36;;;;;;;7.93;3.00;;;;;;;;;;2248391;60;21073;-82
2022/08/22 01:20:23;;;;;;;10.73;3.17;;;;;;;;;;2249079;60;21138;-82
2022/08/22 01:23:20;;;;;;;6.28;3.10;;;;;;;;;;2475482;55;21135;-82
2022/08/22 01:26:05;;;;;;;4.75;2.90;;;;;;;;;;2249192;60;21071;-82
2022/08/22 01:28:50;;;;;;;9.20;2.70;;;;;;;;;;2249648;60;21083;-81
2022/08/22 01:31:43;;;;;;;5.45;2.85;;;;;;;;;;2475653;55;21080;-82
2022/08/22 01:34:22;;;;;;;6.05;2.85;;;;;;;;;;2249141;60;21139;-82
2022/08/22 01:37:00;;;;;;;7.12;2.50;;;;;;;;;;2248748;60;21071;-82
2022/08/22 01:39:42;;;;;;;4.80;2.75;;;;;;;;;;2475047;55;21135;-82
2022/08/22 01:42:28;;;;;;;4.70;2.78;;;;;;;;;;2475810;55;21075;-81
2022/08/22 01:45:14;;;;;;;5.37;2.50;;;;;;;;;;2248921;60;21651;-81
2022/08/22 01:47:44;;;;;;;8.25;2.95;;;;;;;;;;2249149;60;21559;-82
2022/08/22 01:50:17;;;;;;;7.75;2.75;;;;;;;;;;2247913;60;21076;-82
2022/08/22 01:52:46;;;;;;;7.80;3.12;;;;;;;;;;2249413;60;21059;-81
2022/08/22 01:55:18;;;;;;;6.35;2.72;;;;;;;;;;2474662;55;21146;-81
2022/08/22 01:57:50;;;;;;;6.45;2.92;;;;;;;;;;2249134;60;22442;-81
2022/08/22 02:00:18;;;;;;;9.40;2.67;;;;;;;;;;2247922;60;21639;-82
2022/08/22 02:02:52;;;;;;;4.25;2.70;;;;;;;;;;2248036;60;21591;-82
2022/08/22 02:05:24;;;;;;;8.70;2.67;;;;;;;;;;2248426;60;21075;-81
2022/08/22 02:07:55;;;;;;;9.40;3.00;;;;;;;;;;2475586;55;21083;-82
2022/08/22 02:10:26;;;;;;;6.00;2.40;;;;;;;;;;2248516;60;21150;-81
2022/08/22 02:13:01;;;;;;;5.70;3.00;;;;;;;;;;2249543;60;21067;-81
2022/08/22 02:15:34;;;;;;;5.78;2.65;;;;;;;;;;2473212;56;21095;-81
2022/08/22 02:18:11;;;;;;;4.95;2.75;;;;;;;;;;2249109;60;21162;-81
2022/08/22 02:20:41;;;;;;;5.82;2.50;;;;;;;;;;2249085;60;21079;-81
2022/08/22 02:23:14;;;;;;;6.75;2.62;;;;;;;;;;2248619;60;21635;-81
2022/08/22 02:25:48;;;;;;;5.40;3.12;;;;;;;;;;2247536;60;21702;-81
2022/08/22 02:28:19;;;;;;;4.78;2.30;;;;;;;;;;2248561;60;21087;-82
2022/08/22 02:30:48;;;;;;;7.15;2.70;;;;;;;;;;2248977;60;21052;-81
2022/08/22 02:33:22;;;;;;;4.78;2.60;;;;;;;;;;2248335;60;21095;-82
2022/08/22 02:35:53;;;;;;;7.00;3.35;;;;;;;;;;2474358;56;21091;-82
2022/08/22 02:38:24;;;;;;;5.93;3.10;;;;;;;;;;2249352;60;21072;-82
2022/08/22 02:41:00;;;;;;;5.72;2.80;;;;;;;;;;2248754;60;21131;-82
2022/08/22 02:43:29;;;;;;;9.80;3.50;;;;;;;;;;2474435;55;21131;-82
2022/08/22 02:45:59;;;;;;;5.30;2.70;;;;;;;;;;2248129;60;21092;-82
2022/08/22 02:48:32;;;;;;;5.18;3.00;;;;;;;;;;2248897;60;21592;-82
2022/08/22 02:51:01;;;;;;;10.07;3.25;;;;;;;;;;2248357;60;21694;-82
2022/08/22 02:53:33;;;;;;;9.45;3.05;;;;;;;;;;2248501;60;21115;-81
2022/08/22 02:56:03;;;;;;;4.90;2.47;;;;;;;;;;2247970;60;21146;-82
2022/08/22 02:58:37;;;;;;;9.02;2.80;;;;;;;;;;2248211;60;21059;-81
2022/08/22 03:01:29;;;;;;;7.55;2.95;;;;;;;;;;2474480;55;21123;-82
2022/08/22 03:04:16;;;;;;;7.50;3.20;;;;;;;;;;2471111;56;21063;-82
2022/08/22 03:06:46;;;;;;;8.13;2.83;;;;;;;;;;2246905;60;21154;-81
2022/08/22 03:09:25;;;;;;;5.57;2.75;;;;;;;;;;2248693;60;21572;-82
2022/08/22 03:12:01;;;;;;;5.43;2.83;;;;;;;;;;2248877;60;21098;-82
2022/08/22 03:14:32;;;;;;;7.45;2.90;;;;;;;;;;2248653;60;21151;-82
2022/08/22 03:17:02;;;;;;;5.75;3.00;;;;;;;;;;2248298;60;21577;-81
2022/08/22 03:19:32;;;;;;;9.57;3.20;;;;;;;;;;2248147;60;21679;-81
2022/08/22 03:22:00;;;;;;;9.95;2.55;;;;;;;;;;2248161;60;21591;-81
2022/08/22 03:24:32;;;;;;;8.30;2.78;;;;;;;;;;2248260;60;21067;-81
2022/08/22 03:27:03;;;;;;;8.10;3.30;;;;;;;;;;2473908;55;21171;-82
2022/08/22 03:29:33;;;;;;;9.60;2.85;;;;;;;;;;2248812;60;21162;-82
2022/08/22 03:32:08;;;;;;;6.40;2.70;;;;;;;;;;2248449;60;21183;-81
2022/08/22 03:34:35;;;;;;;6.05;3.17;;;;;;;;;;2248936;60;21175;-81
2022/08/22 03:37:06;;;;;;;8.02;2.75;;;;;;;;;;2473960;55;21568;-82
2022/08/22 03:39:43;;;;;;;5.78;3.25;;;;;;;;;;2247494;60;21071;-81
2022/08/22 03:42:19;;;;;;;10.50;3.03;;;;;;;;;;2248136;60;21063;-81
2022/08/22 03:45:05;;;;;;;8.02;2.85;;;;;;;;;;2474657;56;21579;-80
2022/08/22 03:47:42;;;;;;;7.28;2.60;;;;;;;;;;2248870;60;21078;-81
2022/08/22 03:50:29;;;;;;;10.38;3.37;;;;;;;;;;2247976;60;21559;-81
2022/08/22 03:53:14;;;;;;;7.32;2.97;;;;;;;;;;2235908;60;22099;-82
2022/08/22 03:55:52;;;;;;;7.45;2.83;;;;;;;;;;2248612;60;21079;-82
2022/08/22 03:58:30;;;;;;;8.05;3.08;;;;;;;;;;2247756;60;21555;-82
2022/08/22 04:01:12;;;;;;;7.28;3.30;;;;;;;;;;2248399;60;21068;-82
2022/08/22 04:03:55;;;;;;;7.85;3.10;;;;;;;;;;2248168;60;22242;-82
2022/08/22 04:06:37;;;;;;;7.32;2.85;;;;;;;;;;2246926;60;21817;-82
2022/08/22 04:09:24;;;;;;;4.03;2.50;;;;;;;;;;2248120;60;21119;-82
2022/08/22 04:11:59;;;;;;;8.23;2.78;;;;;;;;;;2473165;55;21067;-81
2022/08/22 04:14:48;;;;;;;6.18;2.78;;;;;;;;;;2475077;55;21083;-82
2022/08/22 04:17:26;;;;;;;4.45;2.85;;;;;;;;;;2248074;60;21151;-82
2022/08/22 04:20:08;;;;;;;8.45;3.17;;;;;;;;;;2248604;60;21563;-82
2022/08/22 04:22:49;;;;;;;9.98;3.20;;;;;;;;;;2248700;60;21083;-82
2022/08/22 04:25:19;;;;;;;6.80;3.15;;;;;;;;;;2247264;60;21154;-81
2022/08/22 04:27:49;;;;;;;7.07;3.30;;;;;;;;;;2247543;60;21087;-82
2022/08/22 04:30:33;;;;;;;13.00;3.92;;;;;;;;;;2474049;55;21059;-81
2022/08/22 04:33:05;;;;;;;8.00;3.17;;;;;;;;;;2247858;60;21147;-81
2022/08/22 04:35:34;;;;;;;10.63;3.83;;;;;;;;;;2473281;55;21881;-81
2022/08/22 04:38:04;;;;;;;6.80;3.58;;;;;;;;;;2247708;60;21385;-81
2022/08/22 04:40:34;;;;;;;9.60;3.28;;;;;;;;;;2248371;60;21090;-82
2022/08/22 04:43:05;;;;;;;10.55;3.45;;;;;;;;;;2248651;60;21722;-81
2022/08/22 04:45:34;;;;;;;13.20;4.37;;;;;;;;;;2247203;60;21131;-81
2022/08/22 04:48:07;;;;;;;7.30;3.58;;;;;;;;;;2248762;60;21726;-82
2022/08/22 04:50:37;;;;;;;9.55;3.95;;;;;;;;;;2248812;60;21123;-81
2022/08/22 04:53:22;;;;;;;8.40;3.53;;;;;;;;;;2248812;60;21591;-81
2022/08/22 04:55:54;;;;;;;9.73;3.62;;;;;;;;;;2248883;60;21090;-81
2022/08/22 04:58:26;;;;;;;9.20;3.60;;;;;;;;;;2249373;60;21139;-82
2022/08/22 05:00:57;;;;;;;8.25;3.47;;;;;;;;;;2474544;56;21075;-83
2022/08/22 05:03:25;;;;;;;11.35;4.10;;;;;;;;;;2249366;60;21591;-82
2022/08/22 05:05:54;;;;;;;7.57;3.35;;;;;;;;;;2248705;60;21393;-82
2022/08/22 05:08:24;;;;;;;7.15;3.67;;;;;;;;;;2249885;60;21079;-82
2022/08/22 05:10:52;;;;;;;10.77;3.97;;;;;;;;;;2474470;55;21644;-81
2022/08/22 05:13:21;;;;;;;10.65;3.70;;;;;;;;;;2475348;55;21087;-83
2022/08/22 05:15:49;;;;;;;8.68;3.90;;;;;;;;;;2249080;60;21150;-82
2022/08/22 05:18:19;;;;;;;12.93;3.00;;;;;;;;;;2475855;55;21072;-80
2022/08/22 05:20:47;;;;;;;6.60;3.20;;;;;;;;;;2249873;60;21070;-79
2022/08/22 05:23:17;;;;;;;7.75;3.42;;;;;;;;;;2249645;60;21087;-78
2022/08/22 05:25:45;;;;;;;7.43;2.97;;;;;;;;;;2475190;55;21079;-78
2022/08/22 05:28:14;;;;;;;8.95;3.03;;;;;;;;;;2249700;60;21362;-82
2022/08/22 05:30:43;;;;;;;10.15;3.12;;;;;;;;;;2249758;60;21087;-82
2022/08/22 05:33:14;;;;;;;5.93;2.80;;;;;;;;;;2249358;60;21060;-82
2022/08/22 05:35:43;;;;;;;7.22;3.20;;;;;;;;;;2475333;55;21623;-82
2022/08/22 05:38:13;;;;;;;6.93;3.12;;;;;;;;;;2250088;60;21584;-82
2022/08/22 05:40:41;;;;;;;7.32;2.95;;;;;;;;;;2249626;60;21067;-82
2022/08/22 05:43:10;;;;;;;8.32;2.92;;;;;;;;;;2475858;55;21055;-82
2022/08/22 05:45:40;;;;;;;6.47;3.17;;;;;;;;;;2249605;60;21607;-82
2022/08/22 05:48:08;;;;;;;7.53;2.90;;;;;;;;;;2475578;55;21095;-82
2022/08/22 05:50:38;;;;;;;12.45;3.55;;;;;;;;;;2249918;60;21560;-82
2022/08/22 05:53:08;;;;;;;8.25;3.20;;;;;;;;;;2249913;60;21067;-82
2022/08/22 05:55:38;;;;;;;10.05;3.33;;;;;;;;;;2249221;60;21170;-82
2022/08/22 05:58:27;;;;;;;6.70;2.87;;;;;;;;;;2249677;60;21134;-82
2022/08/22 06:00:59;;;;;;;5.85;2.87;;;;;;;;;;2249675;60;21544;-82
2022/08/22 06:03:28;;;;;;;10.05;2.70;;;;;;;;;;2250069;60;21571;-82
2022/08/22 06:05:57;;;;;;;8.52;3.33;;;;;;;;;;2249327;60;21659;-82
2022/08/22 06:08:28;;;;;;;9.10;3.60;;;;;;;;;;2249549;60;21078;-82
2022/08/22 06:10:58;;;;;;;10.05;3.58;;;;;;;;;;2419553;55;21102;-86
2022/08/22 06:13:31;;;;;;;8.15;2.90;;;;;;;;;;2479008;55;21070;-85
2022/08/22 06:16:03;;;;;;;11.23;3.67;;;;;;;;;;2479369;55;21042;-85
2022/08/22 06:18:31;;;;;;;8.73;3.50;;;;;;;;;;2479699;55;21049;-85
2022/08/22 06:21:00;;;;;;;6.43;3.15;;;;;;;;;;2505294;55;21065;-86
2022/08/22 06:23:29;;;;;;;9.35;3.12;;;;;;;;;;2277750;59;21080;-86
2022/08/22 06:25:58;;;;;;;7.70;3.08;;;;;;;;;;2508987;55;21072;-86
2022/08/22 06:28:27;;;;;;;7.10;3.50;;;;;;;;;;2277083;59;21029;-84
2022/08/22 06:30:55;;;;;;;8.27;2.90;;;;;;;;;;2509598;54;21060;-85
2022/08/22 06:33:25;;;;;;;11.65;3.33;;;;;;;;;;2278063;59;21421;-86
2022/08/22 06:38:53;;;;;;;6.75;3.35;;;;;;;;;;2277741;59;21024;-85
2022/08/22 06:41:22;;;;;;;6.70;2.75;;;;;;;;;;2508905;54;21017;-84
2022/08/22 06:43:51;;;;;;;6.97;2.37;;;;;;;;;;2509010;55;21041;-86
2022/08/22 06:46:19;;;;;;;7.40;2.55;;;;;;;;;;2278680;59;21096;-86
2022/08/22 06:48:46;;;;;;;7.62;2.90;;;;;;;;;;2279074;59;21751;-85
2022/08/22 06:51:15;;;;;;;6.72;2.50;;;;;;;;;;2508262;54;22224;-86
2022/08/22 06:53:44;;;;;;;5.80;2.20;;;;;;;;;;2508566;55;21641;-85
2022/08/22 06:56:12;;;;;;;5.53;2.50;;;;;;;;;;2508406;55;21136;-85
2022/08/22 06:58:41;;;;;;;5.70;2.60;;;;;;;;;;2508900;55;21068;-85
2022/08/22 07:01:11;;;;;;;6.50;2.80;;;;;;;;;;2278973;59;21730;-85
2022/08/22 07:03:39;;;;;;;8.80;3.40;;;;;;;;;;2508449;55;21128;-84
2022/08/22 07:06:12;;;;;;;6.68;2.40;;;;;;;;;;2508332;55;21818;-84
2022/08/22 07:08:39;;;;;;;4.68;1.90;;;;;;;;;;2277689;59;21116;-83
2022/08/22 07:11:10;;;;;;;7.30;2.80;;;;;;;;;;2509672;54;21104;-84
2022/08/22 07:13:39;;;;;;;8.63;2.85;;;;;;;;;;2509336;55;21041;-84
2022/08/22 07:16:07;;;;;;;3.92;2.40;;;;;;;;;;2508322;55;21139;-85
2022/08/22 07:18:34;;;;;;;5.45;2.10;;;;;;;;;;2509296;55;21038;-84
2022/08/22 07:21:03;;;;;;;5.50;2.67;;;;;;;;;;2509695;54;21061;-83
2022/08/22 07:23:33;;;;;;;4.68;2.10;;;;;;;;;;2278217;59;21077;-84
2022/08/22 07:26:06;;;;;;;7.62;2.55;;;;;;;;;;2509670;55;21069;-84
2022/08/22 07:28:38;;;;;;;8.35;2.53;;;;;;;;;;2278059;59;21072;-83
2022/08/22 07:31:10;;;;;;;5.82;2.50;;;;;;;;;;2510171;54;21128;-84
2022/08/22 07:33:42;;;;;;;5.95;2.17;;;;;;;;;;2510231;55;21044;-84
2022/08/22 07:36:17;;;;;;;6.85;2.33;;;;;;;;;;2278190;59;21081;-83
2022/08/22 07:38:47;;;;;;;4.72;2.53;;;;;;;;;;2278227;59;21092;-84
2022/08/22 07:41:16;;;;;;;6.97;1.95;;;;;;;;;;2510247;54;21045;-84
2022/08/22 07:43:46;;;;;;;7.50;2.58;;;;;;;;;;2510201;55;21170;-85
2022/08/22 07:46:19;;;;;;;5.70;1.83;;;;;;;;;;2509791;55;21108;-84
2022/08/22 07:48:48;;;;;;;5.85;2.30;;;;;;;;;;2278584;59;21557;-84
2022/08/22 07:51:16;;;;;;;4.53;1.60;;;;;;;;;;2278211;59;21505;-84
2022/08/22 07:53:45;;;;;;;4.37;1.95;;;;;;;;;;2278362;59;21085;-84
2022/08/22 07:56:15;;;;;;;4.82;1.80;;;;;;;;;;2278068;59;21080;-84
2022/08/22 07:58:43;;;;;;;5.03;2.10;;;;;;;;;;2278473;59;21045;-84
2022/08/22 08:01:14;;;;;;;4.57;1.77;;;;;;;;;;2509816;54;21085;-84
2022/08/22 08:03:43;;;;;;;5.35;1.95;;;;;;;;;;2510344;55;21056;-84
2022/08/22 08:06:10;;;;;;;5.28;1.95;;;;;;;;;;2509614;55;21084;-84
2022/08/22 08:11:17;;;;;;;4.53;2.03;;;;;;;;;;2603941;52;22556;-78
2022/08/22 08:13:46;;;;;;;3.30;1.70;;;;;;;;;;2625449;52;21043;-78
2022/08/22 08:16:18;;;;;;;4.10;2.03;;;;;;;;;;2373491;56;21624;-78
2022/08/22 08:18:47;;;;;;;3.60;2.15;;;;;;;;;;2627045;52;21118;-78
2022/08/22 08:21:17;;;;;;;6.03;2.00;;;;;;;;;;2373189;56;21110;-78
2022/08/22 08:23:46;;;;;;;8.13;2.28;;;;;;;;;;2627346;52;21035;-78
2022/08/22 08:26:16;;;;;;;5.28;2.60;;;;;;;;;;2373393;56;21075;-78
2022/08/22 08:28:47;;;;;;;8.50;2.17;;;;;;;;;;2627442;52;21043;-78
2022/08/22 08:31:18;;;;;;;9.10;2.30;;;;;;;;;;2374016;56;22357;-78
2022/08/22 08:33:46;;;;;;;9.85;2.20;;;;;;;;;;2373757;56;21545;-78
2022/08/22 08:36:22;;;;;;;5.10;1.95;;;;;;;;;;2626408;52;21592;-78
2022/08/22 08:38:53;;;;;;;3.30;1.67;;;;;;;;;;2373427;56;21101;-78
2022/08/22 08:41:45;;;;;;;4.97;1.92;;;;;;;;;;2373832;56;21118;-78
2022/08/22 08:44:21;;;;;;;6.62;2.17;;;;;;;;;;2374089;56;21357;-77
2022/08/22 08:47:08;;;;;;;7.78;2.53;;;;;;;;;;2373656;56;22170;-78
2022/08/22 08:49:53;;;;;;;7.12;2.40;;;;;;;;;;2626814;52;21047;-78
2022/08/22 08:52:36;;;;;;;9.05;2.25;;;;;;;;;;2627300;52;21031;-78
2022/08/22 08:55:18;;;;;;;7.37;2.40;;;;;;;;;;2373416;56;21019;-78
2022/08/22 08:57:51;;;;;;;5.07;1.92;;;;;;;;;;2373710;56;21125;-78
2022/08/22 09:00:27;;;;;;;4.95;2.05;;;;;;;;;;2374087;56;21045;-78
2022/08/22 09:02:59;;;;;;;5.90;2.50;;;;;;;;;;2627487;52;21042;-78
2022/08/22 09:05:44;;;;;;;7.93;2.12;;;;;;;;;;2373016;56;21051;-78
2022/08/22 09:08:29;;;;;;;6.70;2.22;;;;;;;;;;2373696;56;21042;-77
2022/08/22 09:11:09;;;;;;;6.62;2.62;;;;;;;;;;2373916;56;21043;-78
2022/08/22 09:13:44;;;;;;;5.97;2.95;;;;;;;;;;2626739;52;21105;-78
2022/08/22 09:19:10;;;;;;;4.47;1.87;;;;;;;;;;2603805;53;22537;-78
2022/08/22 09:22:01;;;;;;;5.53;2.12;;;;;;;;;;2347919;56;21052;-77
2022/08/22 09:24:39;;;;;;;8.23;2.20;;;;;;;;;;2374182;56;21102;-77
2022/08/22 09:27:09;;;;;;;10.20;2.50;;;;;;;;;;2373602;56;21050;-78
2022/08/22 09:29:42;;;;;;;6.72;2.10;;;;;;;;;;2373542;56;21180;-77
2022/08/22 09:32:12;;;;;;;5.25;2.15;;;;;;;;;;2627875;52;21106;-77
2022/08/22 09:34:45;;;;;;;5.32;2.25;;;;;;;;;;2372946;56;21161;-77
2022/08/22 09:37:16;;;;;;;11.38;2.83;;;;;;;;;;2373719;56;21114;-78
2022/08/22 09:39:49;;;;;;;6.32;2.12;;;;;;;;;;2373136;56;21148;-77
2022/08/22 09:42:18;;;;;;;5.57;2.12;;;;;;;;;;2374128;56;22333;-77
2022/08/22 09:44:51;;;;;;;6.78;2.35;;;;;;;;;;2373785;56;21138;-78
2022/08/22 09:47:23;;;;;;;7.85;2.92;;;;;;;;;;2627449;52;21109;-77
2022/08/22 09:49:56;;;;;;;5.82;2.05;;;;;;;;;;2373812;56;21047;-78
2022/08/22 09:52:22;;;;;;;;;;;;;;;;;;2630393;52;21217;-78
2022/08/22 09:54:54;;;;;;;3.55;1.80;;;;;;;;;;2373613;56;20132;-78
2022/08/22 09:57:27;;;;;;;8.32;2.55;;;;;;;;;;2373559;56;21098;-77
2022/08/22 09:59:59;;;;;;;6.55;2.00;;;;;;;;;;2374356;56;21035;-78
2022/08/22 10:02:31;;;;;;;7.22;3.10;;;;;;;;;;2374152;56;21083;-78
2022/08/22 10:05:02;;;;;;;6.90;1.85;;;;;;;;;;2373033;56;21340;-78
2022/08/22 10:07:48;;;;;;;4.00;2.33;;;;;;;;;;2373350;56;21278;-78
2022/08/22 10:10:21;;;;;;;8.02;2.40;;;;;;;;;;2373963;56;21062;-78
2022/08/22 10:12:51;;;;;;;6.78;1.60;;;;;;;;;;2374000;56;21711;-78
2022/08/22 10:15:21;;;;;;;3.28;1.70;;;;;;;;;;2627221;52;21096;-78
2022/08/22 10:17:56;;;;;;;5.28;1.98;;;;;;;;;;2373296;56;21711;-77
2022/08/22 10:20:25;;;;;;;4.25;1.60;;;;;;;;;;2374000;56;21319;-78
2022/08/22 10:22:58;;;;;;;6.00;2.00;;;;;;;;;;2374111;56;21050;-78
2022/08/22 10:25:31;;;;;;;6.40;1.65;;;;;;;;;;2372976;56;21106;-78
2022/08/22 10:28:20;;;;;;;4.28;1.80;;;;;;;;;;2373942;56;21111;-77
2022/08/22 10:30:53;;;;;;;6.87;2.42;;;;;;;;;;2607117;52;21091;-78
2022/08/22 10:33:24;;;;;;;6.22;1.98;;;;;;;;;;2626638;52;21050;-78
2022/08/22 10:35:59;;;;;;;5.80;2.35;;;;;;;;;;2624996;52;21056;-78
2022/08/22 10:38:28;;;;;;;2.83;1.58;;;;;;;;;;2373187;56;21062;-76
2022/08/22 10:40:58;;;;;;;6.70;2.20;;;;;;;;;;2374132;56;21673;-78
2022/08/22 10:43:29;;;;;;;4.90;1.95;;;;;;;;;;2626790;52;21114;-77
2022/08/22 10:46:01;;;;;;;5.55;1.87;;;;;;;;;;2626665;52;21039;-78
2022/08/22 10:48:32;;;;;;;5.68;1.90;;;;;;;;;;2373598;56;21043;-77
2022/08/22 10:51:05;;;;;;;7.80;2.58;;;;;;;;;;2373833;56;21046;-78
2022/08/22 10:53:37;;;;;;;6.47;1.80;;;;;;;;;;2627965;52;21059;-78
2022/08/22 10:56:11;;;;;;;5.65;2.17;;;;;;;;;;2626880;52;21059;-77
2022/08/22 10:58:41;;;;;;;9.57;2.33;;;;;;;;;;2374460;56;21043;-79
2022/08/22 11:01:11;;;;;;;7.07;1.90;;;;;;;;;;2373842;56;21058;-78
2022/08/22 11:03:41;;;;;;;6.28;2.03;;;;;;;;;;2373530;56;21166;-77
2022/08/22 11:06:12;;;;;;;6.55;1.60;;;;;;;;;;2625720;52;21118;-78
2022/08/22 11:08:55;;;;;;;5.10;2.05;;;;;;;;;;2374150;56;21589;-79
2022/08/22 11:11:32;;;;;;;3.70;1.73;;;;;;;;;;2627759;52;21133;-79
2022/08/22 11:14:12;;;;;;;4.50;1.85;;;;;;;;;;2374967;56;21578;-78
2022/08/22 11:16:45;;;;;;;4.70;1.85;;;;;;;;;;2374361;56;21039;-78
2022/08/22 11:19:15;;;;;;;5.90;2.30;;;;;;;;;;2628232;52;21541;-79
2022/08/22 11:21:49;;;;;;;9.90;1.70;;;;;;;;;;2628730;52;21031;-79
2022/08/22 11:24:19;;;;;;;5.07;2.42;;;;;;;;;;2628679;52;21083;-79
2022/08/22 11:26:50;;;;;;;6.55;2.08;;;;;;;;;;2626687;52;21043;-78
2022/08/22 11:29:36;;;;;;;3.08;1.70;;;;;;;;;;2628720;52;21026;-79
2022/08/22 11:32:06;;;;;;;4.72;2.15;;;;;;;;;;2628473;52;21530;-79
2022/08/22 11:34:43;;;;;;;4.22;1.95;;;;;;;;;;2627721;52;21039;-79
2022/08/22 11:37:19;;;;;;;5.32;2.42;;;;;;;;;;2627645;52;21047;-77
2022/08/22 11:39:49;;;;;;;4.78;1.50;;;;;;;;;;2374745;56;21043;-77
2022/08/22 11:42:20;;;;;;;4.87;1.77;;;;;;;;;;2375035;56;21051;-79
2022/08/22 11:44:51;;;;;;;5.87;2.08;;;;;;;;;;2628678;52;21075;-79
2022/08/22 11:47:20;;;;;;;5.53;1.83;;;;;;;;;;2375049;56;21107;-79
2022/08/22 11:49:56;;;;;;;3.12;1.40;;;;;;;;;;2628173;52;21063;-79
2022/08/22 11:52:26;;;;;;;3.72;1.87;;;;;;;;;;2375514;56;21039;-77
2022/08/22 11:54:58;;;;;;;6.90;1.60;;;;;;;;;;2374248;56;21047;-79
2022/08/22 11:57:29;;;;;;;6.32;1.73;;;;;;;;;;2374895;56;21130;-77
2022/08/22 12:00:03;;;;;;;5.07;1.58;;;;;;;;;;2628793;52;21126;-79
2022/08/22 12:02:35;;;;;;;8.10;1.95;;;;;;;;;;2375244;56;21128;-79
2022/08/22 12:05:06;;;;;;;4.18;1.87;;;;;;;;;;2375143;56;21039;-77
2022/08/22 12:07:37;;;;;;;3.58;1.70;;;;;;;;;;2627077;52;21039;-79
2022/08/22 12:10:05;;;;;;;4.97;1.95;;;;;;;;;;2412458;54;70122;-84
2022/08/22 12:12:37;;;;;;;7.80;1.83;;;;;;;;;;2307239;58;21074;-84
2022/08/22 12:15:08;;;;;;;5.40;2.00;;;;;;;;;;2545147;54;21067;-84
2022/08/22 12:17:53;;;;;;;2.87;1.73;;;;;;;;;;2545108;54;21108;-84
2022/08/22 12:20:31;;;;;;;5.57;1.67;;;;;;;;;;2305869;58;21981;-84
2022/08/22 12:23:11;;;;;;;4.03;1.80;;;;;;;;;;2305510;58;21094;-84
2022/08/22 12:25:50;;;;;;;4.53;1.90;;;;;;;;;;2305317;58;21765;-84
2022/08/22 12:28:24;;;;;;;8.10;1.92;;;;;;;;;;2305277;58;21172;-84
2022/08/22 12:30:50;;;;;;;;;;;;;;;;;;2547540;54;21038;-84
2022/08/22 12:33:24;;;;;;;4.95;1.55;;;;;;;;;;2543300;54;20056;-84
2022/08/22 12:35:57;;;;;;;4.32;1.62;;;;;;;;;;2543339;54;21686;-83
2022/08/22 12:38:39;;;;;;;5.15;1.90;;;;;;;;;;2542518;54;21154;-84
2022/08/22 12:41:17;;;;;;;3.80;1.58;;;;;;;;;;2543637;54;21059;-84
2022/08/22 12:43:51;;;;;;;3.60;1.62;;;;;;;;;;2305757;58;21530;-84
2022/08/22 12:46:25;;;;;;;4.53;1.75;;;;;;;;;;2542811;54;21546;-84
2022/08/22 12:48:57;;;;;;;4.68;1.58;;;;;;;;;;2304538;58;21070;-84
2022/08/22 12:51:30;;;;;;;5.82;1.90;;;;;;;;;;2543048;54;21054;-84
2022/08/22 12:54:06;;;;;;;6.20;1.90;;;;;;;;;;2305858;58;21141;-84
2022/08/22 12:56:37;;;;;;;4.62;1.70;;;;;;;;;;2542855;54;21062;-83
2022/08/22 12:59:14;;;;;;;7.37;2.12;;;;;;;;;;2542646;54;21607;-84
2022/08/22 13:01:43;;;;;;;7.35;2.10;;;;;;;;;;2543018;54;21054;-83
2022/08/22 13:04:13;;;;;;;4.12;1.58;;;;;;;;;;2542729;54;21603;-83
2022/08/22 13:06:46;;;;;;;4.53;1.70;;;;;;;;;;2542240;54;21062;-85
2022/08/22 13:09:18;;;;;;;5.35;1.80;;;;;;;;;;2305744;58;21170;-84
2022/08/22 13:11:46;;;;;;;3.35;1.85;;;;;;;;;;2305625;58;21110;-84
2022/08/22 13:14:14;;;;;;;3.78;1.65;;;;;;;;;;2542477;54;21145;-83
2022/08/22 13:16:43;;;;;;;5.82;1.45;;;;;;;;;;2541582;54;21620;-83
2022/08/22 13:19:12;;;;;;;6.87;1.70;;;;;;;;;;2542359;54;21054;-84
2022/08/22 13:21:43;;;;;;;5.75;1.73;;;;;;;;;;2305267;58;21050;-84
2022/08/22 13:24:12;;;;;;;3.08;1.33;;;;;;;;;;2305516;58;21054;-84
2022/08/22 13:26:47;;;;;;;3.85;1.27;;;;;;;;;;2540253;54;21491;-84
2022/08/22 13:29:16;;;;;;;5.95;2.22;;;;;;;;;;2305011;58;21126;-84
2022/08/22 13:31:44;;;;;;;2.70;1.50;;;;;;;;;;2541418;54;21057;-85
2022/08/22 13:34:12;;;;;;;3.87;1.60;;;;;;;;;;2303114;58;21110;-84
2022/08/22 13:36:42;;;;;;;5.47;1.60;;;;;;;;;;2303003;58;21693;-84
2022/08/22 13:39:22;;;;;;;5.32;1.67;;;;;;;;;;2539724;54;21708;-84
2022/08/22 13:41:51;;;;;;;3.80;1.73;;;;;;;;;;2539442;54;21686;-84
2022/08/22 13:44:20;;;;;;;4.12;1.75;;;;;;;;;;2302811;58;21051;-84
2022/08/22 13:46:47;;;;;;;2.80;1.65;;;;;;;;;;2303293;58;21185;-83
2022/08/22 13:52:00;;;;;;;5.97;1.87;;;;;;;;;;2496264;55;22653;-79
2022/08/22 13:54:47;;;;;;;6.00;2.10;;;;;;;;;;2262374;59;21061;-77
2022/08/22 13:57:18;;;;;;;4.75;1.67;;;;;;;;;;2264661;59;21698;-80
2022/08/22 13:59:47;;;;;;;4.40;1.80;;;;;;;;;;2265051;59;21213;-79
2022/08/22 14:02:17;;;;;;;3.42;1.40;;;;;;;;;;2263689;59;21101;-76
2022/08/22 14:04:47;;;;;;;4.72;1.92;;;;;;;;;;2263803;59;21347;-80
2022/08/22 14:09:56;;;;;;;4.53;2.35;;;;;;;;;;2535479;54;22175;-79
2022/08/22 14:12:24;;;;;;;4.80;1.65;;;;;;;;;;2536794;54;21646;-79
2022/08/22 14:14:56;;;;;;;4.12;1.48;;;;;;;;;;2556847;54;21037;-80
2022/08/22 14:17:28;;;;;;;3.75;1.65;;;;;;;;;;2315410;58;21143;-80
2022/08/22 14:19:57;;;;;;;4.93;1.75;;;;;;;;;;2556879;54;21113;-76
2022/08/22 14:22:25;;;;;;;6.18;1.80;;;;;;;;;;2317047;58;21124;-80
2022/08/22 14:24:54;;;;;;;6.20;1.80;;;;;;;;;;2316925;58;21068;-77
2022/08/22 14:27:29;;;;;;;5.65;1.92;;;;;;;;;;2317214;58;21044;-80
2022/08/22 14:29:58;;;;;;;3.60;1.50;;;;;;;;;;2317141;58;21056;-76
2022/08/22 14:32:35;;;;;;;3.35;1.10;;;;;;;;;;2316734;58;21045;-80
2022/08/22 14:35:04;;;;;;;4.28;1.48;;;;;;;;;;2314718;58;21049;-78
2022/08/22 14:37:34;;;;;;;3.67;1.30;;;;;;;;;;2316260;58;21064;-78
2022/08/22 14:40:04;;;;;;;5.47;1.65;;;;;;;;;;2557014;54;21116;-80
2022/08/22 14:42:38;;;;;;;6.22;1.60;;;;;;;;;;2316923;58;21148;-79
2022/08/22 14:45:09;;;;;;;5.18;1.33;;;;;;;;;;2557128;54;21084;-81
2022/08/22 14:47:40;;;;;;;7.45;1.85;;;;;;;;;;2316453;58;21211;-80
2022/08/22 14:50:09;;;;;;;6.80;2.12;;;;;;;;;;2316447;58;21210;-80
2022/08/22 14:52:38;;;;;;;7.53;2.10;;;;;;;;;;2314684;58;21092;-80
2022/08/22 14:55:16;;;;;;;4.55;1.95;;;;;;;;;;2558311;54;21044;-80
2022/08/22 14:57:45;;;;;;;7.28;2.42;;;;;;;;;;2557920;54;21171;-76
2022/08/22 15:00:12;;;;;;;5.72;1.75;;;;;;;;;;2317170;58;21104;-79
2022/08/22 15:02:41;;;;;;;3.15;1.50;;;;;;;;;;2316198;58;21148;-80
2022/08/22 15:05:16;;;;;;;4.55;2.17;;;;;;;;;;2315105;58;21180;-80
2022/08/22 15:07:51;;;;;;;4.25;1.65;;;;;;;;;;2557696;54;21068;-79
2022/08/22 15:10:21;;;;;;;5.53;1.65;;;;;;;;;;2316871;58;21558;-80
2022/08/22 15:12:50;;;;;;;3.42;1.48;;;;;;;;;;2317041;58;21120;-80
2022/08/22 15:15:27;;;;;;;6.18;1.87;;;;;;;;;;2317128;58;21080;-77
2022/08/22 15:17:54;;;;;;;4.57;1.77;;;;;;;;;;2317753;58;21126;-80
2022/08/22 15:20:24;;;;;;;4.37;1.85;;;;;;;;;;2317447;58;21064;-81
2022/08/22 15:22:52;;;;;;;2.78;1.73;;;;;;;;;;2315690;58;21040;-80
2022/08/22 15:25:21;;;;;;;4.18;1.60;;;;;;;;;;2314671;58;21061;-78
2022/08/22 15:27:52;;;;;;;3.95;1.50;;;;;;;;;;2315646;58;21072;-77
2022/08/22 15:30:30;;;;;;;5.53;1.50;;;;;;;;;;2316002;58;21076;-78
2022/08/22 15:33:07;;;;;;;3.67;1.50;;;;;;;;;;2317014;58;21822;-80